Time;durP1;ratioP1;P1;durP2;ratioP2;P2;SDS_P1;SDS_P2;PMS_P1;PMS_P2;Temp;Humidity;BMP_temperature;BMP_pressure;BME280_temperature;BME280_humidity;BME280_pressure;Samples;Min_cycle;Max_cycle;Signal;HPM_P1;HPM_P2
2023/12/10 00:01:36;;;;;;;61.40;35.45;;;;;;;8.01;71.84;100408.19;5063967;28;20048;-87
2023/12/10 00:04:28;;;;;;;50.57;28.37;;;;;;;7.90;71.65;100414.13;5064741;28;20048;-89
2023/12/10 00:07:22;;;;;;;46.25;27.15;;;;;;;7.91;72.03;100437.41;5064105;28;20056;-89
2023/12/10 00:10:15;;;;;;;47.40;27.07;;;;;;;7.83;72.88;100440.81;5060372;28;20402;-88
2023/12/10 00:13:09;;;;;;;46.35;24.85;;;;;;;7.82;72.37;100421.06;5069761;28;20045;-88
2023/12/10 00:16:04;;;;;;;44.08;24.00;;;;;;;7.75;72.35;100420.69;5066766;28;20532;-86
2023/12/10 00:18:59;;;;;;;33.95;18.83;;;;;;;7.54;73.12;100433.84;5062238;28;20044;-89
2023/12/10 00:21:51;;;;;;;49.27;26.50;;;;;;;7.46;73.46;100439.16;5064400;28;20414;-87
2023/12/10 00:24:44;;;;;;;43.08;24.95;;;;;;;7.39;74.15;100434.13;5061327;28;20271;-88
2023/12/10 00:27:38;;;;;;;44.85;25.35;;;;;;;7.40;74.20;100422.22;5064289;28;20055;-88
2023/12/10 00:30:30;;;;;;;45.95;26.38;;;;;;;7.39;74.31;100415.19;5064417;28;20052;-87
2023/12/10 00:33:22;;;;;;;45.88;26.02;;;;;;;7.07;74.67;100399.06;5060687;28;20044;-89
2023/12/10 00:36:14;;;;;;;45.25;25.60;;;;;;;6.83;75.98;100386.53;5064860;28;20056;-87
2023/12/10 00:39:07;;;;;;;43.05;25.27;;;;;;;6.87;76.44;100389.44;5064657;28;20052;-87
2023/12/10 00:41:59;;;;;;;;;;;;;;;6.94;76.72;100387.16;5064637;28;20040;-88
2023/12/10 00:44:54;;;;;;;43.17;23.90;;;;;;;6.76;76.85;100391.50;5064579;28;19916;-87
2023/12/10 00:47:49;;;;;;;45.47;25.17;;;;;;;6.82;77.09;100387.63;5060843;28;20474;-88
2023/12/10 00:50:43;;;;;;;34.38;18.90;;;;;;;6.84;76.88;100390.84;5057984;28;20047;-87
2023/12/10 00:53:38;;;;;;;33.57;18.73;;;;;;;6.91;76.55;100382.31;5058599;28;20056;-87
2023/12/10 00:56:32;;;;;;;49.00;25.88;;;;;;;6.93;76.98;100382.03;5063766;28;20422;-87
2023/12/10 00:59:27;;;;;;;43.90;24.27;;;;;;;6.89;76.85;100381.84;5062987;28;20044;-87
2023/12/10 01:02:21;;;;;;;45.77;24.43;;;;;;;7.02;76.64;100389.16;5061256;28;20043;-88
2023/12/10 01:05:14;;;;;;;45.30;25.77;;;;;;;7.07;76.52;100380.94;5063127;28;20044;-89
2023/12/10 01:08:14;;;;;;;37.17;19.58;;;;;;;7.08;76.89;100370.94;5063047;28;20067;-90
2023/12/10 01:11:07;;;;;;;47.47;24.35;;;;;;;7.21;76.10;100378.25;5057248;28;20048;-89
2023/12/10 01:14:02;;;;;;;41.80;23.00;;;;;;;7.31;76.20;100375.34;5056936;28;20048;-89
2023/12/10 01:16:55;;;;;;;46.40;24.92;;;;;;;7.25;75.65;100371.13;5063218;28;20044;-89
2023/12/10 01:19:48;;;;;;;45.10;23.00;;;;;;;7.16;76.11;100373.72;5062819;28;20047;-89
2023/12/10 01:22:42;;;;;;;41.40;23.75;;;;;;;7.25;76.17;100371.13;5060299;28;20040;-88
2023/12/10 01:25:35;;;;;;;42.35;23.73;;;;;;;7.32;75.92;100395.84;5062599;28;20068;-88
2023/12/10 01:28:29;;;;;;;42.38;25.35;;;;;;;7.43;75.87;100397.25;5062501;28;20048;-88
2023/12/10 01:31:21;;;;;;;31.02;18.45;;;;;;;7.61;75.70;100401.75;5062219;28;20517;-89
2023/12/10 01:34:16;;;;;;;40.85;24.05;;;;;;;7.66;74.41;100401.66;5056109;28;20048;-89
2023/12/10 01:37:10;;;;;;;37.22;21.60;;;;;;;7.64;74.58;100413.88;5062169;28;20044;-88
2023/12/10 01:39:59;;;;;;;39.63;21.13;;;;;;;7.66;74.00;100417.91;5058394;28;20528;-88
2023/12/10 01:42:54;;;;;;;37.95;21.70;;;;;;;7.77;73.79;100404.16;5059797;28;20410;-88
2023/12/10 01:45:48;;;;;;;32.50;17.73;;;;;;;7.65;73.13;100407.38;5062771;28;20513;-87
2023/12/10 01:48:44;;;;;;;35.28;20.90;;;;;;;7.68;74.52;100412.97;5057286;28;20056;-87
2023/12/10 01:51:39;;;;;;;36.33;19.55;;;;;;;7.73;74.00;100402.03;5062299;28;20048;-88
2023/12/10 01:54:31;;;;;;;38.08;21.10;;;;;;;7.69;73.68;100403.75;5062262;28;20056;-87
2023/12/10 01:57:24;;;;;;;24.58;14.65;;;;;;;7.71;73.39;100415.06;5062452;28;20052;-88
2023/12/10 02:00:18;;;;;;;33.65;20.38;;;;;;;7.67;73.98;100418.66;5062359;28;20048;-89
2023/12/10 02:03:12;;;;;;;29.63;18.13;;;;;;;7.81;74.19;100415.97;5058477;28;20044;-89
2023/12/10 02:06:07;;;;;;;33.50;18.73;;;;;;;7.82;73.63;100412.16;5055521;28;20060;-88
2023/12/10 02:08:59;;;;;;;32.93;18.73;;;;;;;7.70;73.98;100416.19;5062444;28;20060;-89
2023/12/10 02:11:59;;;;;;;32.40;20.08;;;;;;;7.63;73.74;100421.19;5062048;28;20044;-88
2023/12/10 02:14:53;;;;;;;23.57;14.67;;;;;;;7.79;73.74;100426.28;5062464;28;20048;-87
2023/12/10 02:17:45;;;;;;;34.05;18.58;;;;;;;7.86;73.33;100429.38;5062795;28;20270;-88
2023/12/10 02:20:40;;;;;;;36.03;20.13;;;;;;;7.91;73.32;100448.22;5062126;28;20044;-87
2023/12/10 02:23:38;;;;;;;37.42;19.80;;;;;;;7.87;73.68;100450.75;5057907;28;20067;-88
2023/12/10 02:26:33;;;;;;;36.50;20.65;;;;;;;7.71;73.56;100433.22;5062257;28;20044;-88
2023/12/10 02:29:25;;;;;;;43.03;21.40;;;;;;;7.66;74.26;100420.59;5062153;28;20056;-88
2023/12/10 02:32:20;;;;;;;37.85;22.13;;;;;;;7.64;74.55;100439.03;5060688;28;20052;-87
2023/12/10 02:35:14;;;;;;;36.35;21.33;;;;;;;7.61;74.57;100445.06;5061955;28;20048;-86
2023/12/10 02:38:08;;;;;;;35.22;21.23;;;;;;;7.56;75.07;100439.75;5062357;28;20048;-89
2023/12/10 02:41:03;;;;;;;41.25;22.05;;;;;;;7.53;75.39;100436.81;5057063;28;20052;-88
2023/12/10 02:43:58;;;;;;;26.73;16.20;;;;;;;7.57;75.32;100424.28;5056416;28;20524;-86
2023/12/10 02:46:51;;;;;;;38.80;21.25;;;;;;;7.54;75.07;100409.47;5061636;28;20052;-88
2023/12/10 02:49:45;;;;;;;35.20;20.73;;;;;;;7.35;75.88;100403.38;5065842;28;20048;-89
2023/12/10 02:52:40;;;;;;;29.50;17.63;;;;;;;7.09;77.49;100416.59;5063898;28;20048;-86
2023/12/10 02:55:32;;;;;;;34.25;20.60;;;;;;;7.11;77.08;100402.78;5066096;28;20405;-89
2023/12/10 02:58:29;;;;;;;36.80;19.08;;;;;;;7.04;77.20;100383.44;5065392;28;20063;-87
2023/12/10 03:01:23;;;;;;;28.30;18.08;;;;;;;7.19;77.62;100377.75;5061852;28;20048;-88
2023/12/10 03:04:18;;;;;;;31.33;20.80;;;;;;;7.39;76.67;100371.13;5065812;28;20048;-87
2023/12/10 03:07:10;;;;;;;30.08;17.63;;;;;;;7.50;76.38;100383.34;5063123;28;20048;-88
2023/12/10 03:10:08;;;;;;;26.02;15.85;;;;;;;7.55;74.97;100369.69;5060315;28;20044;-87
2023/12/10 03:13:00;;;;;;;28.70;19.23;;;;;;;7.49;74.58;100376.31;5062211;28;20414;-86
2023/12/10 03:15:52;;;;;;;31.17;19.33;;;;;;;7.49;74.82;100382.53;5065694;28;20052;-87
2023/12/10 03:18:51;;;;;;;28.38;18.02;;;;;;;7.39;74.47;100377.34;5064448;28;20043;-87
2023/12/10 03:21:46;;;;;;;29.02;18.05;;;;;;;7.39;75.38;100373.81;5064855;28;20040;-87
2023/12/10 03:24:41;;;;;;;25.33;15.23;;;;;;;7.16;75.20;100346.69;5065418;28;20044;-88
2023/12/10 03:27:38;;;;;;;30.90;19.23;;;;;;;7.15;76.37;100355.13;5064698;28;20048;-88
2023/12/10 03:30:30;;;;;;;28.75;18.27;;;;;;;7.17;75.97;100361.81;5064472;28;20399;-87
2023/12/10 03:33:22;;;;;;;27.17;18.55;;;;;;;7.14;76.21;100358.91;5060719;28;20052;-88
2023/12/10 03:36:14;;;;;;;30.15;18.33;;;;;;;7.34;76.29;100346.88;5064873;28;20056;-88
2023/12/10 03:39:09;;;;;;;30.88;18.55;;;;;;;7.32;75.62;100334.47;5059310;28;20072;-88
2023/12/10 03:42:04;;;;;;;24.30;14.60;;;;;;;7.29;76.30;100350.50;5064686;28;20040;-88
2023/12/10 03:44:58;;;;;;;22.03;13.57;;;;;;;7.24;75.83;100359.50;5066306;28;20274;-87
2023/12/10 03:47:50;;;;;;;23.08;13.50;;;;;;;7.12;75.97;100353.00;5064869;28;20044;-87
2023/12/10 03:50:45;;;;;;;30.63;18.10;;;;;;;6.94;77.55;100399.84;5065288;28;20059;-88
2023/12/10 03:53:39;;;;;;;29.25;18.70;;;;;;;6.87;78.22;100408.34;5059115;28;20055;-88
2023/12/10 03:56:34;;;;;;;31.48;18.52;;;;;;;6.86;77.81;100401.34;5064501;28;20048;-88
2023/12/10 03:59:29;;;;;;;28.45;17.60;;;;;;;6.97;78.26;100393.84;5063579;28;20043;-87
2023/12/10 04:02:23;;;;;;;28.30;17.40;;;;;;;6.79;78.35;100390.13;5062547;28;20418;-87
2023/12/10 04:05:16;;;;;;;26.57;16.60;;;;;;;6.85;79.01;100395.16;5064495;28;20068;-88
2023/12/10 04:08:10;;;;;;;27.98;17.58;;;;;;;6.91;78.37;100370.75;5063893;28;20048;-88
2023/12/10 04:11:02;;;;;;;27.50;17.55;;;;;;;6.82;78.83;100344.38;5058279;28;20131;-88
2023/12/10 04:13:51;;;;;;;27.55;16.85;;;;;;;6.93;78.50;100336.88;5057604;28;20537;-88
2023/12/10 04:16:46;;;;;;;31.55;19.63;;;;;;;6.96;78.73;100335.50;5063775;28;20420;-89
2023/12/10 04:19:40;;;;;;;29.77;18.17;;;;;;;6.93;77.95;100365.81;5062158;28;20116;-86
2023/12/10 04:22:35;;;;;;;33.58;19.48;;;;;;;6.87;78.62;100355.09;5060338;28;20044;-87
2023/12/10 04:25:27;;;;;;;31.92;18.75;;;;;;;6.90;78.45;100369.13;5064457;28;20048;-88
2023/12/10 04:28:21;;;;;;;31.02;18.23;;;;;;;6.83;78.83;100378.44;5063990;28;20047;-88
2023/12/10 04:31:12;;;;;;;24.35;14.45;;;;;;;6.80;79.00;100387.13;5064186;28;20056;-87
2023/12/10 04:34:07;;;;;;;31.10;18.23;;;;;;;6.71;79.37;100391.59;5057299;28;20048;-88
2023/12/10 04:37:01;;;;;;;22.48;13.65;;;;;;;6.74;79.65;100392.91;5063545;28;20059;-88
2023/12/10 04:39:53;;;;;;;24.00;13.50;;;;;;;6.79;79.35;100395.53;5062772;28;20060;-87
2023/12/10 04:42:48;;;;;;;33.42;18.25;;;;;;;6.79;79.47;100395.53;5060774;28;20041;-87
2023/12/10 04:45:41;;;;;;;29.27;18.58;;;;;;;6.82;79.66;100406.53;5040933;28;20049;-87
2023/12/10 04:48:36;;;;;;;32.25;18.90;;;;;;;6.84;79.64;100419.75;5043616;28;20127;-87
2023/12/10 04:51:28;;;;;;;29.77;15.93;;;;;;;6.77;79.92;100400.41;5040312;28;20049;-87
2023/12/10 04:54:23;;;;;;;31.35;19.52;;;;;;;6.85;79.66;100405.16;5043702;28;20053;-87
2023/12/10 04:57:18;;;;;;;33.17;18.93;;;;;;;6.79;79.53;100417.97;5043546;28;20044;-87
2023/12/10 05:00:11;;;;;;;25.83;15.25;;;;;;;6.79;80.02;100428.75;5043424;28;20040;-88
2023/12/10 05:03:03;;;;;;;35.92;20.98;;;;;;;6.75;80.28;100435.06;5040156;28;20060;-87
2023/12/10 05:06:00;;;;;;;24.70;15.48;;;;;;;6.78;80.04;100446.06;5044213;28;20044;-87
2023/12/10 05:08:55;;;;;;;30.73;16.63;;;;;;;6.82;80.05;100433.56;5043486;28;20052;-87
2023/12/10 05:11:49;;;;;;;35.30;20.10;;;;;;;6.84;79.67;100398.94;5043283;28;20044;-87
2023/12/10 05:14:44;;;;;;;27.20;15.27;;;;;;;6.94;80.08;100414.19;5043063;28;20044;-88
2023/12/10 05:17:38;;;;;;;35.67;20.10;;;;;;;6.97;79.20;100426.28;5043398;28;20056;-86
2023/12/10 05:20:33;;;;;;;25.13;14.40;;;;;;;7.04;79.68;100429.41;5041058;28;20052;-88
2023/12/10 05:23:33;;;;;;;24.70;14.45;;;;;;;7.06;78.93;100427.22;5037926;28;20040;-87
2023/12/10 05:26:27;;;;;;;34.22;20.65;;;;;;;7.07;79.43;100417.97;5042625;28;20044;-88
2023/12/10 05:29:17;;;;;;;34.78;19.20;;;;;;;7.04;78.91;100421.28;5042399;28;20044;-88
2023/12/10 05:32:12;;;;;;;34.38;19.00;;;;;;;7.13;78.82;100414.88;5042269;28;20049;-89
2023/12/10 05:35:06;;;;;;;30.40;17.70;;;;;;;7.24;78.94;100432.53;5054307;28;20093;-87
2023/12/10 05:37:58;;;;;;;35.75;21.15;;;;;;;7.27;77.87;100455.47;5052967;28;20417;-87
2023/12/10 05:40:53;;;;;;;24.25;14.60;;;;;;;7.14;78.20;100472.47;5057667;28;20048;-89
2023/12/10 05:43:48;;;;;;;27.25;16.20;;;;;;;7.11;77.83;100464.97;5057715;28;20060;-88
2023/12/10 05:46:42;;;;;;;30.47;16.57;;;;;;;6.81;79.37;100429.25;5062449;28;20044;-87
2023/12/10 05:49:37;;;;;;;33.97;20.30;;;;;;;6.53;80.26;100416.78;5062817;28;20044;-87
2023/12/10 05:52:29;;;;;;;34.90;19.53;;;;;;;6.69;81.04;100444.34;5047198;28;20044;-88
2023/12/10 05:55:21;;;;;;;35.22;21.27;;;;;;;6.77;79.65;100446.34;5061143;28;20052;-88
2023/12/10 05:58:13;;;;;;;36.83;20.77;;;;;;;6.75;80.42;100438.56;5062871;28;20044;-87
2023/12/10 06:01:08;;;;;;;34.70;21.25;;;;;;;6.85;79.82;100443.81;5063087;28;20044;-88
2023/12/10 06:04:02;;;;;;;29.73;16.52;;;;;;;6.97;79.42;100448.72;5057074;28;20048;-87
2023/12/10 06:06:54;;;;;;;36.90;20.40;;;;;;;6.92;79.75;100443.41;5063485;28;20398;-86
2023/12/10 06:09:49;;;;;;;32.20;20.55;;;;;;;6.91;79.02;100451.81;5061013;28;20386;-87
2023/12/10 06:12:41;;;;;;;37.38;20.38;;;;;;;7.08;79.09;100454.75;5057419;28;20048;-87
2023/12/10 06:15:35;;;;;;;34.83;20.40;;;;;;;7.17;77.64;100451.03;5057566;28;20073;-86
2023/12/10 06:18:27;;;;;;;33.45;19.58;;;;;;;7.05;77.83;100441.81;5061370;28;20059;-86
2023/12/10 06:21:21;;;;;;;27.80;16.50;;;;;;;7.06;77.02;100446.91;5063924;28;20051;-85
2023/12/10 06:24:16;;;;;;;38.13;19.73;;;;;;;6.97;77.27;100437.09;5060127;28;20409;-87
2023/12/10 06:27:11;;;;;;;34.75;20.25;;;;;;;7.02;77.57;100445.09;5065379;28;20048;-88
2023/12/10 06:30:11;;;;;;;41.65;22.23;;;;;;;7.05;76.95;100464.25;5059493;28;20528;-88
2023/12/10 06:33:03;;;;;;;;;;;;;;;6.92;76.77;100454.19;5062118;28;20048;-89
2023/12/10 06:35:58;;;;;;;31.63;18.33;;;;;;;6.97;77.09;100456.81;5065059;28;20293;-88
2023/12/10 06:38:53;;;;;;;35.67;21.20;;;;;;;6.88;76.60;100453.19;5045371;28;20048;-87
2023/12/10 06:41:47;;;;;;;30.27;16.33;;;;;;;6.72;77.18;100449.16;5044989;28;20049;-88
2023/12/10 06:44:42;;;;;;;36.38;20.67;;;;;;;6.56;77.46;100456.69;5045962;28;20048;-88
2023/12/10 06:47:36;;;;;;;33.38;19.13;;;;;;;6.42;78.13;100455.84;5043750;28;20061;-88
2023/12/10 06:50:31;;;;;;;34.58;21.38;;;;;;;6.37;78.29;100458.63;5045275;28;20052;-87
2023/12/10 06:53:23;;;;;;;31.92;18.98;;;;;;;6.52;78.64;100460.28;5040452;28;20163;-88
2023/12/10 06:56:15;;;;;;;33.22;18.85;;;;;;;6.68;78.76;100475.97;5065321;28;20043;-87
2023/12/10 06:59:07;;;;;;;35.15;20.13;;;;;;;6.66;78.65;100491.66;5065414;28;20044;-87
2023/12/10 07:02:00;;;;;;;33.42;19.48;;;;;;;6.72;78.46;100487.78;5065150;28;20052;-87
2023/12/10 07:04:45;;;;;;;32.40;18.52;;;;;;;6.74;79.05;100491.00;5065145;28;20044;-87
2023/12/10 07:07:35;;;;;;;30.35;18.27;;;;;;;6.75;77.98;100471.00;5064575;28;20055;-87
2023/12/10 07:10:22;;;;;;;30.70;17.63;;;;;;;6.73;78.11;100473.19;5060739;28;20048;-87
2023/12/10 07:13:11;;;;;;;33.42;19.73;;;;;;;6.39;78.49;100483.44;5060994;28;20056;-88
2023/12/10 07:16:06;;;;;;;33.72;18.10;;;;;;;6.41;79.30;100460.44;5064587;28;20048;-88
2023/12/10 07:18:53;;;;;;;23.00;13.67;;;;;;;6.35;79.10;100464.31;5065170;28;20051;-86
2023/12/10 07:21:48;;;;;;;31.63;18.48;;;;;;;6.27;79.76;100475.78;5066419;28;20052;-87
2023/12/10 07:24:41;;;;;;;34.70;19.42;;;;;;;6.31;80.44;100481.38;5065680;28;20044;-87
2023/12/10 07:27:36;;;;;;;30.58;17.55;;;;;;;6.41;79.53;100486.66;5064881;28;20048;-88
2023/12/10 07:30:30;;;;;;;22.90;14.10;;;;;;;6.33;79.14;100498.13;5059965;28;20060;-87
2023/12/10 07:33:22;;;;;;;35.38;19.67;;;;;;;6.44;78.56;100507.69;5059774;28;20048;-87
2023/12/10 07:36:15;;;;;;;41.80;21.65;;;;;;;6.43;79.22;100516.88;5064630;28;20041;-87
2023/12/10 07:39:09;;;;;;;27.33;17.33;;;;;;;6.42;79.24;100513.38;5057653;28;20437;-87
2023/12/10 07:42:01;;;;;;;30.35;17.85;;;;;;;6.31;79.85;100517.31;5061337;28;20418;-87
2023/12/10 07:44:53;;;;;;;30.73;18.33;;;;;;;6.33;79.95;100533.22;5059061;28;20044;-87
2023/12/10 07:47:45;;;;;;;29.95;18.17;;;;;;;6.28;80.22;100526.00;5062609;28;20051;-87
2023/12/10 07:50:35;;;;;;;29.95;18.40;;;;;;;6.18;80.82;100536.94;5064595;28;20063;-87
2023/12/10 07:53:29;;;;;;;29.95;18.95;;;;;;;6.29;80.25;100551.09;5059374;28;20043;-88
2023/12/10 07:56:24;;;;;;;27.30;15.95;;;;;;;6.30;80.33;100539.19;5062984;28;20056;-86
2023/12/10 07:59:13;;;;;;;35.08;21.23;;;;;;;6.39;80.22;100532.88;5062579;28;20075;-87
2023/12/10 08:02:08;;;;;;;29.88;18.67;;;;;;;6.31;80.09;100557.81;5061626;28;20040;-88
2023/12/10 08:05:06;;;;;;;34.72;19.77;;;;;;;6.33;80.24;100569.13;5060131;28;20052;-88
2023/12/10 08:07:58;;;;;;;23.92;14.60;;;;;;;6.46;80.45;100564.88;5059101;28;20044;-83
2023/12/10 08:10:53;;;;;;;28.38;16.77;;;;;;;6.43;81.39;100581.69;5058526;28;20052;-83
2023/12/10 08:13:47;;;;;;;26.60;16.20;;;;;;;6.55;79.93;100584.78;5058284;28;20044;-84
2023/12/10 08:16:42;;;;;;;35.40;17.15;;;;;;;6.33;80.34;100571.03;5056729;28;20051;-84
2023/12/10 08:19:36;;;;;;;18.47;11.27;;;;;;;6.90;82.33;100548.31;5060814;28;20155;-86
2023/12/10 08:22:31;;;;;;;23.42;14.00;;;;;;;6.94;80.12;100570.94;5058753;28;20061;-87
2023/12/10 08:25:21;;;;;;;28.50;17.33;;;;;;;6.87;79.73;100543.47;5065117;28;20048;-83
2023/12/10 08:28:15;;;;;;;27.88;16.42;;;;;;;6.36;81.14;100533.44;5061194;28;20059;-82
2023/12/10 08:31:07;;;;;;;19.93;12.30;;;;;;;6.36;81.83;100544.22;5059699;28;20044;-83
2023/12/10 08:33:59;;;;;;;25.27;16.63;;;;;;;6.33;82.03;100550.22;5058667;28;20056;-83
2023/12/10 08:36:52;;;;;;;28.50;17.50;;;;;;;6.41;82.07;100551.47;5070301;28;20043;-84
2023/12/10 08:39:42;;;;;;;33.22;17.85;;;;;;;6.57;81.50;100568.25;5066190;28;20048;-83
2023/12/10 08:42:36;;;;;;;32.30;17.75;;;;;;;6.76;80.93;100574.44;5081286;28;20056;-84
2023/12/10 08:45:31;;;;;;;30.55;15.95;;;;;;;7.08;80.24;100588.00;5075153;28;20047;-84
2023/12/10 08:48:25;;;;;;;19.17;12.30;;;;;;;7.21;79.24;100616.22;5069359;28;20059;-82
2023/12/10 08:51:18;;;;;;;21.53;12.47;;;;;;;7.76;77.51;100624.47;5073029;28;20048;-83
2023/12/10 08:54:12;;;;;;;28.10;16.00;;;;;;;7.97;76.09;100636.53;5077341;28;20752;-82
2023/12/10 08:57:07;;;;;;;27.13;13.32;;;;;;;8.24;75.14;100638.44;5075685;28;20048;-83
2023/12/10 09:00:05;;;;;;;21.33;13.70;;;;;;;7.89;76.49;100651.56;5076892;28;20055;-84
2023/12/10 09:02:59;;;;;;;30.17;16.05;;;;;;;7.96;75.32;100648.47;5079383;28;20286;-84
2023/12/10 09:05:54;;;;;;;26.60;14.75;;;;;;;7.82;76.70;100656.56;5080346;28;20043;-82
2023/12/10 09:08:48;;;;;;;24.90;14.60;;;;;;;7.66;76.85;100645.22;5074660;28;20051;-81
2023/12/10 09:11:43;;;;;;;22.90;12.30;;;;;;;7.73;77.93;100648.31;5063718;28;20056;-82
2023/12/10 09:14:35;;;;;;;19.80;12.00;;;;;;;7.76;77.93;100643.41;5057117;28;20052;-83
2023/12/10 09:17:32;;;;;;;25.70;14.02;;;;;;;7.74;77.97;100649.94;5074992;28;21731;-81
2023/12/10 09:20:24;;;;;;;26.25;13.60;;;;;;;7.67;78.86;100643.28;5077821;28;20405;-81
2023/12/10 09:23:18;;;;;;;15.40;9.57;;;;;;;7.63;78.72;100644.97;5074958;28;20122;-82
2023/12/10 09:26:13;;;;;;;16.65;9.90;;;;;;;7.71;78.24;100644.31;5081508;28;20059;-81
2023/12/10 09:29:08;;;;;;;20.03;11.43;;;;;;;7.68;78.77;100653.81;5076016;28;20048;-81
2023/12/10 09:32:00;;;;;;;17.97;10.67;;;;;;;7.79;78.68;100661.75;5080746;28;20063;-82
2023/12/10 09:34:52;;;;;;;21.05;13.15;;;;;;;7.87;78.64;100663.78;5084670;28;20055;-82
2023/12/10 09:37:46;;;;;;;24.83;14.40;;;;;;;8.04;79.24;100666.72;5098043;28;20039;-83
2023/12/10 09:40:38;;;;;;;14.37;9.40;;;;;;;8.03;77.32;100674.03;5101877;28;20063;-83
2023/12/10 09:43:33;;;;;;;22.75;13.45;;;;;;;8.24;77.16;100670.94;5097167;28;20050;-83
2023/12/10 09:46:27;;;;;;;16.07;10.33;;;;;;;8.37;76.79;100684.53;5101371;28;20031;-82
2023/12/10 09:49:21;;;;;;;23.13;13.30;;;;;;;8.48;76.65;100677.00;5087759;28;20437;-82
2023/12/10 09:52:16;;;;;;;20.90;12.48;;;;;;;8.73;76.76;100686.53;5067355;28;20047;-82
2023/12/10 09:55:10;;;;;;;19.45;12.27;;;;;;;9.19;76.49;100676.28;5080158;28;20044;-82
2023/12/10 09:58:05;;;;;;;14.33;9.50;;;;;;;16.35;52.39;100679.84;5080784;28;20040;-83
2023/12/10 10:01:00;;;;;;;17.53;11.67;;;;;;;22.09;35.73;100683.59;5080267;28;20540;-82
2023/12/10 10:03:55;;;;;;;15.60;8.93;;;;;;;23.08;32.31;100670.84;5086949;28;20036;-81
2023/12/10 10:06:48;;;;;;;13.02;8.52;;;;;;;23.71;30.39;100673.38;5084998;28;20790;-80
2023/12/10 10:09:40;;;;;;;23.95;14.50;;;;;;;26.08;27.67;100666.56;5088203;28;20052;-81
2023/12/10 10:12:35;;;;;;;12.02;9.10;;;;;;;26.39;26.30;100670.88;5087819;28;20041;-80
2023/12/10 10:15:30;;;;;;;11.40;9.00;;;;;;;27.47;25.53;100671.22;5085343;28;20048;-82
2023/12/10 10:18:25;;;;;;;12.15;8.18;;;;;;;30.06;22.45;100676.41;5089911;28;20070;-81
2023/12/10 10:21:20;;;;;;;14.07;9.68;;;;;;;28.30;23.36;100671.72;5086126;28;20048;-82
2023/12/10 10:24:12;;;;;;;13.13;8.75;;;;;;;28.67;23.40;100673.97;5082753;28;20047;-82
2023/12/10 10:27:07;;;;;;;10.65;8.35;;;;;;;29.10;22.86;100668.03;5085587;28;20044;-82
2023/12/10 10:30:03;;;;;;;10.60;7.90;;;;;;;29.49;22.42;100661.31;5079259;28;20429;-81
2023/12/10 10:33:00;;;;;;;8.73;7.28;;;;;;;30.37;20.71;100660.53;5080053;28;20051;-82
2023/12/10 10:35:53;;;;;;;7.80;6.65;;;;;;;31.85;19.54;100659.16;5077709;28;20056;-83
2023/12/10 10:38:48;;;;;;;8.05;5.70;;;;;;;31.60;18.79;100648.88;5084652;28;20043;-82
2023/12/10 10:41:40;;;;;;;;;;;;;;;31.84;18.47;100663.22;5084354;28;20047;-83
2023/12/10 10:44:32;;;;;;;6.68;4.78;;;;;;;31.04;19.02;100665.84;5085097;28;19912;-84
2023/12/10 10:47:23;;;;;;;5.22;4.47;;;;;;;31.20;19.13;100662.84;5084315;28;20052;-83
2023/12/10 10:50:19;;;;;;;6.85;5.05;;;;;;;30.41;19.69;100652.78;5087129;28;20043;-82
2023/12/10 10:53:13;;;;;;;7.10;5.80;;;;;;;30.34;19.51;100663.44;5087558;28;20048;-82
2023/12/10 10:56:12;;;;;;;6.28;5.10;;;;;;;31.03;18.69;100655.09;5088324;28;20061;-82
2023/12/10 10:59:04;;;;;;;7.72;6.53;;;;;;;31.40;19.32;100657.66;5084386;28;20047;-83
2023/12/10 11:02:22;;;;;;;8.15;6.82;;;;;;;31.34;19.07;100659.50;5090624;28;20043;-82
2023/12/10 11:05:15;;;;;;;9.70;7.25;;;;;;;32.60;17.36;100666.09;5082787;28;20047;-81
2023/12/10 11:08:07;;;;;;;9.70;7.43;;;;;;;31.53;18.47;100670.84;5085441;28;20047;-80
2023/12/10 11:11:04;;;;;;;10.77;7.95;;;;;;;31.49;19.43;100662.56;5084018;28;20433;-81
2023/12/10 11:13:56;;;;;;;11.07;8.18;;;;;;;29.11;22.50;100652.00;5083437;28;20044;-82
2023/12/10 11:16:50;;;;;;;10.38;8.50;;;;;;;24.51;27.89;100650.97;5083245;28;20067;-82
2023/12/10 11:19:40;;;;;;;13.15;9.07;;;;;;;21.18;33.88;100648.13;5080215;28;20043;-82
2023/12/10 11:22:31;;;;;;;13.93;8.38;;;;;;;19.03;39.19;100656.75;5082817;28;20524;-82
2023/12/10 11:25:23;;;;;;;11.75;9.45;;;;;;;18.77;39.44;100652.06;5081377;28;20044;-82
2023/12/10 11:28:24;;;;;;;13.98;9.50;;;;;;;17.71;42.71;100642.03;5074112;28;20102;-83
2023/12/10 11:31:12;;;;;;;14.43;11.25;;;;;;;17.48;43.56;100654.91;5084154;28;20039;-84
2023/12/10 11:34:06;;;;;;;14.00;9.73;;;;;;;21.16;36.47;100665.09;5076901;28;20037;-81
2023/12/10 11:36:58;;;;;;;14.02;9.40;;;;;;;23.40;32.35;100674.28;5089728;28;20039;-82
2023/12/10 11:39:53;;;;;;;20.02;10.23;;;;;;;25.46;29.03;100676.97;5087503;28;20047;-82
2023/12/10 11:42:48;;;;;;;14.40;9.80;;;;;;;25.67;27.54;100680.69;5085236;28;20045;-82
2023/12/10 11:45:42;;;;;;;12.13;9.82;;;;;;;25.18;27.58;100687.66;5086044;28;20047;-82
2023/12/10 11:48:34;;;;;;;12.70;9.95;;;;;;;27.11;26.02;100683.13;5086661;28;20043;-82
2023/12/10 11:51:28;;;;;;;12.13;9.38;;;;;;;24.48;28.79;100690.69;5087519;28;20513;-82
2023/12/10 11:54:20;;;;;;;16.95;10.48;;;;;;;23.85;31.74;100684.41;5083313;28;20048;-82
2023/12/10 11:57:12;;;;;;;13.30;9.88;;;;;;;24.78;30.12;100687.28;5082794;28;20045;-82
2023/12/10 12:00:11;;;;;;;11.35;10.15;;;;;;;24.15;30.02;100677.44;5081162;28;20410;-82
2023/12/10 12:03:09;;;;;;;12.90;9.75;;;;;;;26.57;27.30;100688.06;5072755;28;20041;-82
2023/12/10 12:06:04;;;;;;;15.30;10.10;;;;;;;25.45;28.63;100686.50;5087683;28;20043;-81
2023/12/10 12:08:58;;;;;;;16.65;9.63;;;;;;;29.59;23.95;100682.63;5088079;28;20049;-83
2023/12/10 12:11:48;;;;;;;11.85;9.70;;;;;;;31.19;21.23;100683.00;5084773;28;20043;-83
2023/12/10 12:14:41;;;;;;;11.25;9.90;;;;;;;29.80;22.55;100672.00;5082254;28;20036;-85
2023/12/10 12:17:36;;;;;;;11.75;10.25;;;;;;;22.23;33.74;100682.00;5080997;28;20047;-84
2023/12/10 12:20:31;;;;;;;14.15;10.65;;;;;;;20.87;37.07;100663.34;5081888;28;20040;-82
2023/12/10 12:23:26;;;;;;;15.45;10.65;;;;;;;19.32;40.81;100662.63;5088811;28;20033;-82
2023/12/10 12:26:20;;;;;;;13.60;10.43;;;;;;;19.06;41.53;100652.44;5087973;28;20037;-83
2023/12/10 12:29:15;;;;;;;17.40;10.25;;;;;;;18.65;42.18;100660.53;5090424;28;20037;-83
2023/12/10 12:32:08;;;;;;;13.13;10.30;;;;;;;18.32;43.37;100652.13;5088423;28;20051;-83
2023/12/10 12:35:01;;;;;;;17.05;11.18;;;;;;;18.44;44.20;100651.91;5087111;28;20036;-82
2023/12/10 12:37:53;;;;;;;11.85;9.80;;;;;;;18.34;43.89;100667.09;5090280;28;20037;-82
2023/12/10 12:40:47;;;;;;;15.07;11.68;;;;;;;17.92;45.37;100675.44;5065901;28;20050;-83
2023/12/10 12:43:42;;;;;;;14.25;10.68;;;;;;;17.71;45.43;100686.03;5080063;28;20051;-83
2023/12/10 12:46:34;;;;;;;14.55;11.20;;;;;;;17.32;46.79;100684.44;5083125;28;20040;-81
2023/12/10 12:49:29;;;;;;;13.98;11.07;;;;;;;17.08;47.33;100680.00;5078791;28;20040;-81
2023/12/10 12:52:23;;;;;;;15.57;10.63;;;;;;;16.90;48.23;100679.63;5082701;28;20048;-81
2023/12/10 12:55:21;;;;;;;15.95;11.13;;;;;;;16.91;48.26;100669.44;5078934;28;20048;-81
2023/12/10 12:58:13;;;;;;;23.17;12.35;;;;;;;16.94;47.62;100658.50;5081917;28;20029;-82
2023/12/10 13:01:08;;;;;;;15.70;10.82;;;;;;;16.97;47.84;100652.28;5080520;28;20044;-81
2023/12/10 13:04:02;;;;;;;17.40;11.20;;;;;;;16.75;48.80;100653.00;5077262;28;20040;-82
2023/12/10 13:06:57;;;;;;;14.75;11.00;;;;;;;16.75;48.41;100666.72;5077054;28;20036;-82
2023/12/10 13:09:49;;;;;;;14.40;10.85;;;;;;;16.79;48.74;100670.34;5078563;28;20040;-83
2023/12/10 13:12:38;;;;;;;13.63;10.55;;;;;;;16.53;48.66;100659.91;5081484;28;20040;-81
2023/12/10 13:15:31;;;;;;;17.15;10.88;;;;;;;16.47;49.19;100655.03;5080914;28;20052;-82
2023/12/10 13:18:20;;;;;;;14.10;10.50;;;;;;;16.35;48.91;100653.22;5078034;28;20041;-82